createdAt,value
2023-04-25T00:02:01.453Z,98369.72
2023-04-25T00:04:31.348Z,98367.91
2023-04-25T00:06:59.836Z,98363.34
2023-04-25T00:09:29.155Z,98370.56
2023-04-25T00:11:58.974Z,98358.81
2023-04-25T00:14:27.055Z,98370.13
2023-04-25T00:16:55.434Z,98373.31
2023-04-25T00:19:23.669Z,98371.66
2023-04-25T00:21:51.723Z,98364.69
2023-04-25T00:24:19.735Z,98365.56
2023-04-25T00:26:48.772Z,98369.56
2023-04-25T00:29:18.662Z,98375.38
2023-04-25T00:31:46.830Z,98372.53
2023-04-25T00:34:15.127Z,98375.69
2023-04-25T00:36:43.337Z,98369.44
2023-04-25T00:39:11.648Z,98367.97
2023-04-25T00:41:39.771Z,98364.06
2023-04-25T00:44:08.290Z,98366.47
2023-04-25T00:46:38.434Z,98361.81
2023-04-25T00:49:06.491Z,98360.03
2023-04-25T00:51:35.232Z,98365.13
2023-04-25T00:54:03.848Z,98362.25
2023-04-25T00:56:32.239Z,98359.53
2023-04-25T00:59:00.540Z,98353.06
2023-04-25T01:01:29.327Z,98354.88
2023-04-25T01:04:00.902Z,98351.59
2023-04-25T01:06:29.916Z,98349.38
2023-04-25T01:08:58.782Z,98347.94
2023-04-25T01:11:26.831Z,98342.41
2023-04-25T01:13:54.929Z,98347.38
2023-04-25T01:16:25.030Z,98348.47
2023-04-25T01:18:53.816Z,98346.47
2023-04-25T01:21:23.463Z,98342.53
2023-04-25T01:23:52.407Z,98344.34
2023-04-25T01:26:22.430Z,98342.53
2023-04-25T01:28:51.339Z,98348.78
2023-04-25T01:31:20.661Z,98338.75
2023-04-25T01:33:50.211Z,98342.16
2023-04-25T01:36:20.004Z,98342.56
2023-04-25T01:38:49.889Z,98342.75
2023-04-25T01:41:19.079Z,98343.88
2023-04-25T01:43:47.346Z,98347.16
2023-04-25T01:46:15.996Z,98346.41
2023-04-25T01:48:44.092Z,98346.81
2023-04-25T01:51:12.720Z,98346.31
2023-04-25T01:53:40.886Z,98352.72
2023-04-25T01:56:11.062Z,98350.50
2023-04-25T01:58:39.143Z,98344.56
2023-04-25T02:01:07.348Z,98346.59
2023-04-25T02:03:36.864Z,98342.25
2023-04-25T02:06:05.349Z,98333.38
2023-04-25T02:08:33.428Z,98337.16
2023-04-25T02:11:01.455Z,98344.78
2023-04-25T02:13:31.172Z,98347.75
2023-04-25T02:15:59.633Z,98340.69
2023-04-25T02:18:28.512Z,98345.72
2023-04-25T02:20:56.695Z,98338.66
2023-04-25T02:23:24.898Z,98341.56
2023-04-25T02:25:54.166Z,98345.38
2023-04-25T02:28:22.379Z,98345.59
2023-04-25T02:30:52.310Z,98346.81
2023-04-25T02:33:22.086Z,98348.06
2023-04-25T02:35:50.473Z,98349.84
2023-04-25T02:38:18.647Z,98346.09
2023-04-25T02:40:46.959Z,98349.22
2023-04-25T02:43:15.129Z,98350.84
2023-04-25T02:45:43.640Z,98349.72
2023-04-25T02:48:13.143Z,98347.38
2023-04-25T02:50:41.366Z,98347.47
2023-04-25T02:53:09.537Z,98352.31
2023-04-25T02:55:37.665Z,98345.88
2023-04-25T02:58:06.104Z,98348.41
2023-04-25T03:00:34.461Z,98358.13
2023-04-25T03:03:02.932Z,98355.41
2023-04-25T03:05:32.612Z,98358.88
2023-04-25T03:08:00.973Z,98353.22
2023-04-25T03:10:29.030Z,98363.69
2023-04-25T03:12:57.575Z,98364.06
2023-04-25T03:15:25.624Z,98364.97
2023-04-25T03:17:53.738Z,98359.72
2023-04-25T03:20:22.200Z,98365.16
2023-04-25T03:22:53.627Z,98365.06
2023-04-25T03:25:22.056Z,98365.53
2023-04-25T03:27:50.146Z,98374.16
2023-04-25T03:30:18.602Z,98372.81
2023-04-25T03:32:47.018Z,98372.16
2023-04-25T03:35:15.497Z,98374.88
2023-04-25T03:37:46.701Z,98373.56
2023-04-25T03:40:16.295Z,98380.28
2023-04-25T03:42:45.127Z,98382.34
2023-04-25T03:45:13.422Z,98380.91
2023-04-25T03:47:42.801Z,98379.78
2023-04-25T03:50:11.659Z,98380.16
2023-04-25T03:52:39.928Z,98385.50
2023-04-25T03:55:08.909Z,98375.91
2023-04-25T03:57:39.025Z,98378.59
2023-04-25T04:00:09.017Z,98379.38
2023-04-25T04:02:38.708Z,98392.00
2023-04-25T04:05:08.292Z,98393.28
2023-04-25T04:07:41.254Z,98387.19
2023-04-25T04:10:10.284Z,98387.75
2023-04-25T04:12:39.819Z,98390.13
2023-04-25T04:15:08.856Z,98391.81
2023-04-25T04:17:36.972Z,98388.25
2023-04-25T04:20:07.119Z,98392.88
2023-04-25T04:22:35.183Z,98395.75
2023-04-25T04:25:03.652Z,98393.78
2023-04-25T04:27:31.774Z,98399.97
2023-04-25T04:30:01.560Z,98397.19
2023-04-25T04:32:31.586Z,98400.22
2023-04-25T04:35:00.897Z,98397.84
2023-04-25T04:37:29.071Z,98405.53
2023-04-25T04:39:57.715Z,98405.53
2023-04-25T04:42:26.612Z,98403.00
2023-04-25T04:44:56.198Z,98399.19
2023-04-25T04:47:26.982Z,98400.28
2023-04-25T04:49:55.092Z,98411.91
2023-04-25T04:52:23.192Z,98404.63
2023-04-25T04:54:51.337Z,98402.25
2023-04-25T04:57:19.567Z,98406.88
2023-04-25T04:59:47.772Z,98412.31
2023-04-25T05:02:16.110Z,98418.69
2023-04-25T05:04:46.273Z,98424.19
2023-04-25T05:07:14.893Z,98423.81
2023-04-25T05:09:43.236Z,98429.56
2023-04-25T05:12:11.676Z,98429.13
2023-04-25T05:14:39.710Z,98431.38
2023-04-25T05:17:09.671Z,98431.28
2023-04-25T05:19:38.029Z,98434.50
2023-04-25T05:22:07.513Z,98433.13
2023-04-25T05:24:35.951Z,98431.22
2023-04-25T05:27:04.020Z,98431.44
2023-04-25T05:29:32.224Z,98429.44
2023-04-25T05:32:00.431Z,98441.19
2023-04-25T05:34:28.536Z,98437.72
2023-04-25T05:36:56.747Z,98441.00
2023-04-25T05:39:26.390Z,98443.28
2023-04-25T05:41:54.441Z,98438.94
2023-04-25T05:44:22.543Z,98439.06
2023-04-25T05:46:50.962Z,98445.47
2023-04-25T05:49:19.763Z,98451.94
2023-04-25T05:51:47.948Z,98449.59
2023-04-25T05:54:16.378Z,98455.53
2023-04-25T05:56:45.997Z,98452.13
2023-04-25T05:59:14.170Z,98450.06
2023-04-25T06:01:42.631Z,98447.63
2023-04-25T06:04:11.049Z,98457.78
2023-04-25T06:06:39.331Z,98467.38
2023-04-25T06:09:07.560Z,98465.69
2023-04-25T06:11:36.046Z,98469.91
2023-04-25T06:14:05.925Z,98469.53
2023-04-25T06:16:34.218Z,98465.97
2023-04-25T06:19:02.558Z,98469.63
2023-04-25T06:21:30.561Z,98472.34
2023-04-25T06:23:58.651Z,98472.63
2023-04-25T06:26:26.754Z,98473.31
2023-04-25T06:28:55.161Z,98478.88
2023-04-25T06:31:24.658Z,98470.94
2023-04-25T06:33:55.811Z,98475.56
2023-04-25T06:36:26.236Z,98477.91
2023-04-25T06:38:54.634Z,98479.59
2023-04-25T06:41:23.172Z,98474.81
2023-04-25T06:43:51.213Z,98474.41
2023-04-25T06:46:19.328Z,98474.72
2023-04-25T06:48:49.471Z,98476.41
2023-04-25T06:51:18.062Z,98479.50
2023-04-25T06:53:46.272Z,98480.34
2023-04-25T06:56:14.292Z,98484.88
2023-04-25T06:58:42.338Z,98488.56
2023-04-25T07:01:10.383Z,98490.81
2023-04-25T07:03:39.592Z,98493.06
2023-04-25T07:06:09.539Z,98485.31
2023-04-25T07:08:37.667Z,98474.75
2023-04-25T07:11:06.017Z,98475.13
2023-04-25T07:13:34.357Z,98472.88
2023-04-25T07:16:02.660Z,98486.13
2023-04-25T07:18:31.020Z,98480.00
2023-04-25T07:20:59.295Z,98491.09
2023-04-25T07:23:29.021Z,98484.22
2023-04-25T07:25:57.051Z,98491.31
2023-04-25T07:28:25.497Z,98483.41
2023-04-25T07:30:53.890Z,98483.63
2023-04-25T07:33:23.034Z,98479.41
2023-04-25T07:35:51.247Z,98487.13
2023-04-25T07:38:19.284Z,98482.06
2023-04-25T07:40:49.728Z,98485.78
2023-04-25T07:43:18.066Z,98488.75
2023-04-25T07:45:46.270Z,98495.50
2023-04-25T07:48:18.750Z,98489.69
2023-04-25T07:50:46.904Z,98483.75
2023-04-25T07:53:15.680Z,98491.78
2023-04-25T07:55:43.801Z,98494.06
2023-04-25T07:58:14.994Z,98497.81
2023-04-25T08:00:43.436Z,98499.00
2023-04-25T08:03:12.884Z,98494.59
2023-04-25T08:05:41.242Z,98506.88
2023-04-25T08:08:09.568Z,98508.06
2023-04-25T08:10:37.922Z,98499.38
2023-04-25T08:13:06.164Z,98518.41
2023-04-25T08:15:36.003Z,98515.66
2023-04-25T08:18:06.077Z,98525.69
2023-04-25T08:20:34.583Z,98520.34
2023-04-25T08:23:02.964Z,98523.88
2023-04-25T08:25:31.091Z,98536.97
2023-04-25T08:28:00.660Z,98533.22
2023-04-25T08:30:29.327Z,98534.66
2023-04-25T08:32:58.990Z,98538.25
2023-04-25T08:35:27.274Z,98540.84
2023-04-25T08:37:55.465Z,98534.03
2023-04-25T08:40:29.859Z,98539.91
2023-04-25T08:42:59.959Z,98545.91
2023-04-25T08:45:30.473Z,98552.25
2023-04-25T08:48:01.702Z,98552.44
2023-04-25T08:50:31.429Z,98555.84
2023-04-25T08:53:03.913Z,98556.72
2023-04-25T08:55:33.257Z,98569.88
2023-04-25T08:58:02.448Z,98573.41
2023-04-25T09:00:31.098Z,98581.41
2023-04-25T09:03:01.918Z,98582.03
2023-04-25T09:05:31.199Z,98588.66
2023-04-25T09:07:59.521Z,98593.31
2023-04-25T09:10:27.847Z,98590.03
2023-04-25T09:13:09.897Z,98600.19
2023-04-25T09:15:49.917Z,98607.84
2023-04-25T09:18:30.629Z,98605.38
2023-04-25T09:21:13.831Z,98605.06
2023-04-25T09:23:44.450Z,98609.09
2023-04-25T09:26:12.727Z,98611.53
2023-04-25T09:28:42.094Z,98623.41
2023-04-25T09:31:12.647Z,98621.91
2023-04-25T09:33:43.209Z,98616.03
2023-04-25T09:36:13.260Z,98630.69
2023-04-25T09:38:44.154Z,98627.50
2023-04-25T09:41:13.073Z,98646.47
2023-04-25T09:43:41.894Z,98637.78
2023-04-25T09:46:12.534Z,98645.28
2023-04-25T09:48:42.132Z,98646.91
2023-04-25T09:51:12.039Z,98647.41
2023-04-25T09:53:44.750Z,98651.25
2023-04-25T09:56:14.899Z,98657.78
2023-04-25T09:58:43.739Z,98655.13
2023-04-25T10:01:15.956Z,98657.50
2023-04-25T10:03:47.927Z,98655.25
2023-04-25T10:06:22.608Z,98661.25
2023-04-25T10:08:53.357Z,98658.88
2023-04-25T10:11:21.800Z,98649.47
2023-04-25T10:13:50.656Z,98650.84
2023-04-25T10:16:19.933Z,98651.78
2023-04-25T10:18:49.996Z,98661.72
2023-04-25T10:21:18.711Z,98665.19
2023-04-25T10:23:48.196Z,98665.72
2023-04-25T10:26:17.938Z,98670.53
2023-04-25T10:28:59.464Z,98681.78
2023-04-25T10:31:28.378Z,98669.59
2023-04-25T10:34:01.669Z,98675.13
2023-04-25T10:36:34.307Z,98680.66
2023-04-25T10:39:08.456Z,98682.34
2023-04-25T10:41:49.312Z,98685.00
2023-04-25T10:44:18.001Z,98692.72
2023-04-25T10:46:48.412Z,98680.13
2023-04-25T10:52:17.358Z,98687.53
2023-04-25T10:54:49.603Z,98686.44
2023-04-25T10:57:40.148Z,98682.19
2023-04-25T11:00:12.148Z,98687.41
2023-04-25T11:02:44.170Z,98686.84
2023-04-25T11:05:12.918Z,98689.94
2023-04-25T11:07:59.840Z,98696.75
2023-04-25T11:10:36.825Z,98705.75
2023-04-25T11:13:05.394Z,98698.06
2023-04-25T11:15:33.626Z,98702.69
2023-04-25T11:18:10.493Z,98699.94
2023-04-25T11:20:38.644Z,98687.66
2023-04-25T11:23:08.334Z,98700.25
2023-04-25T11:25:38.521Z,98695.53
2023-04-25T11:28:07.212Z,98687.34
2023-04-25T11:30:35.258Z,98693.91
2023-04-25T11:33:04.498Z,98691.66
2023-04-25T11:35:34.725Z,98696.25
2023-04-25T11:38:04.118Z,98695.69
2023-04-25T11:40:34.689Z,98704.47
2023-04-25T11:43:03.368Z,98701.31
2023-04-25T11:45:32.342Z,98711.72
2023-04-25T11:48:00.564Z,98715.72
2023-04-25T11:50:30.777Z,98719.91
2023-04-25T11:52:59.559Z,98713.56
2023-04-25T11:55:27.936Z,98717.06
2023-04-25T11:57:57.543Z,98710.84
2023-04-25T12:00:27.054Z,98715.25
2023-04-25T12:02:57.021Z,98709.78
2023-04-25T12:05:32.896Z,98716.41
2023-04-25T12:08:14.137Z,98726.94
2023-04-25T12:10:44.182Z,98726.78
2023-04-25T12:13:29.262Z,98724.56
2023-04-25T12:15:58.027Z,98722.44
2023-04-25T12:18:28.806Z,98733.84
2023-04-25T12:20:57.897Z,98723.03
2023-04-25T12:23:30.033Z,98732.56
2023-04-25T12:25:58.878Z,98729.38
2023-04-25T12:28:29.464Z,98729.56
2023-04-25T12:30:59.672Z,98728.91
2023-04-25T12:33:29.113Z,98733.34
2023-04-25T12:35:58.658Z,98733.34
2023-04-25T12:38:28.154Z,98728.53
2023-04-25T12:40:56.928Z,98725.34
2023-04-25T12:43:25.746Z,98721.41
2023-04-25T12:45:56.997Z,98720.50
2023-04-25T12:48:26.521Z,98730.47
2023-04-25T12:50:55.108Z,98724.94
2023-04-25T12:53:25.681Z,98723.19
2023-04-25T12:58:27.540Z,98740.47
2023-04-25T13:00:57.289Z,98730.47
2023-04-25T13:03:25.905Z,98742.03
2023-04-25T13:05:55.434Z,98739.56
2023-04-25T13:08:23.761Z,98742.94
2023-04-25T13:10:52.042Z,98749.75
2023-04-25T13:13:20.256Z,98742.28
2023-04-25T13:15:48.808Z,98743.44
2023-04-25T13:18:18.801Z,98737.50
2023-04-25T13:20:47.338Z,98737.19
2023-04-25T13:23:15.744Z,98742.69
2023-04-25T13:25:43.893Z,98739.22
2023-04-25T13:28:12.152Z,98733.81
2023-04-25T13:30:40.851Z,98738.97
2023-04-25T13:33:10.841Z,98751.19
2023-04-25T13:35:41.192Z,98753.28
2023-04-25T13:38:10.123Z,98757.50
2023-04-25T13:40:38.531Z,98762.06
2023-04-25T13:43:07.640Z,98762.09
2023-04-25T13:45:37.179Z,98763.84
2023-04-25T13:48:05.595Z,98760.47
2023-04-25T13:50:33.853Z,98767.03
2023-04-25T13:53:03.835Z,98760.69
2023-04-25T13:55:32.554Z,98765.28
2023-04-25T13:58:08.155Z,98757.81
2023-04-25T14:00:39.081Z,98758.63
2023-04-25T14:03:09.270Z,98758.63
2023-04-25T14:05:40.347Z,98762.66
2023-04-25T14:08:11.775Z,98760.00
2023-04-25T14:10:40.099Z,98760.94
2023-04-25T14:13:10.209Z,98763.97
2023-04-25T14:15:39.751Z,98769.66
2023-04-25T14:18:08.812Z,98775.09
2023-04-25T14:20:37.384Z,98775.75
2023-04-25T14:23:06.073Z,98776.88
2023-04-25T14:25:37.027Z,98782.28
2023-04-25T14:28:05.262Z,98780.81
2023-04-25T14:30:33.641Z,98795.63
2023-04-25T14:33:02.262Z,98786.84
2023-04-25T14:35:30.722Z,98794.38
2023-04-25T14:37:59.188Z,98794.91
2023-04-25T14:40:28.802Z,98793.53
2023-04-25T14:42:58.897Z,98796.38
2023-04-25T14:45:27.408Z,98789.50
2023-04-25T14:47:55.729Z,98789.81
2023-04-25T14:50:24.013Z,98793.72
2023-04-25T14:52:54.001Z,98793.59
2023-04-25T14:55:22.368Z,98797.59
2023-04-25T14:57:50.755Z,98786.16
2023-04-25T15:00:21.870Z,98790.97
2023-04-25T15:02:50.728Z,98787.13
2023-04-25T15:05:19.842Z,98791.41
2023-04-25T15:07:48.932Z,98796.78
2023-04-25T15:10:17.808Z,98785.78
2023-04-25T15:12:47.705Z,98803.28
2023-04-25T15:15:26.027Z,98796.75
2023-04-25T15:17:59.286Z,98802.13
2023-04-25T15:20:28.777Z,98795.75
2023-04-25T15:22:57.230Z,98800.72
2023-04-25T15:25:26.094Z,98808.28
2023-04-25T15:27:55.938Z,98814.59
2023-04-25T15:30:24.188Z,98805.41
2023-04-25T15:32:53.732Z,98822.78
2023-04-25T15:35:23.643Z,98821.72
2023-04-25T15:37:52.673Z,98815.25
2023-04-25T15:40:20.848Z,98820.63
2023-04-25T15:42:51.843Z,98810.16
2023-04-25T15:45:21.736Z,98815.88
2023-04-25T15:47:51.652Z,98818.00
2023-04-25T15:50:20.304Z,98816.03
2023-04-25T15:52:50.867Z,98815.81
2023-04-25T15:55:21.776Z,98812.66
2023-04-25T15:57:51.377Z,98820.41
2023-04-25T16:00:22.289Z,98821.66
2023-04-25T16:02:50.959Z,98814.97
2023-04-25T16:05:19.722Z,98809.84
2023-04-25T16:07:50.247Z,98809.31
2023-04-25T16:10:21.965Z,98815.44
2023-04-25T16:12:50.974Z,98817.31
2023-04-25T16:15:19.350Z,98809.25
2023-04-25T16:17:47.582Z,98819.91
2023-04-25T16:20:17.636Z,98819.16
2023-04-25T16:22:46.090Z,98816.63
2023-04-25T16:25:16.126Z,98812.06
2023-04-25T16:27:44.549Z,98819.59
2023-04-25T16:30:13.178Z,98818.41
2023-04-25T16:32:44.830Z,98820.75
2023-04-25T16:35:15.384Z,98819.91
2023-04-25T16:37:43.879Z,98825.53
2023-04-25T16:40:12.913Z,98827.72
2023-04-25T16:42:42.642Z,98831.53
2023-04-25T16:45:11.796Z,98835.16
2023-04-25T16:47:39.930Z,98831.53
2023-04-25T16:50:09.144Z,98836.31
2023-04-25T16:52:37.329Z,98833.03
2023-04-25T16:55:06.616Z,98833.88
2023-04-25T16:57:36.458Z,98826.56
2023-04-25T17:00:09.930Z,98837.25
2023-04-25T17:02:38.498Z,98836.41
2023-04-25T17:05:07.788Z,98840.91
2023-04-25T17:07:36.343Z,98839.75
2023-04-25T17:10:04.878Z,98843.66
2023-04-25T17:12:33.703Z,98840.91
2023-04-25T17:15:01.885Z,98851.22
2023-04-25T17:17:31.660Z,98851.56
2023-04-25T17:19:59.688Z,98849.13
2023-04-25T17:22:27.894Z,98845.38
2023-04-25T17:24:56.050Z,98851.72
2023-04-25T17:27:24.120Z,98854.97
2023-04-25T17:29:52.288Z,98850.72
2023-04-25T17:32:20.472Z,98862.22
2023-04-25T17:34:50.055Z,98862.94
2023-04-25T17:37:18.985Z,98870.50
2023-04-25T17:39:47.453Z,98881.63
2023-04-25T17:42:15.982Z,98877.97
2023-04-25T17:44:44.444Z,98881.53
2023-04-25T17:47:13.136Z,98900.81
2023-04-25T17:49:41.292Z,98893.91
2023-04-25T17:52:11.072Z,98898.13
2023-04-25T17:54:39.544Z,98911.16
2023-04-25T17:57:08.103Z,98912.38
2023-04-25T17:59:36.604Z,98909.94
2023-04-25T18:02:05.040Z,98911.16
2023-04-25T18:04:33.439Z,98913.06
2023-04-25T18:07:01.870Z,98910.44
2023-04-25T18:09:32.606Z,98925.16
2023-04-25T18:12:01.516Z,98919.19
2023-04-25T18:14:29.550Z,98926.41
2023-04-25T18:16:58.303Z,98920.28
2023-04-25T18:22:05.546Z,98931.09
2023-04-25T18:24:35.553Z,98926.63
2023-04-25T18:27:07.120Z,98930.22
2023-04-25T18:29:35.243Z,98934.84
2023-04-25T18:32:05.249Z,98935.97
2023-04-25T18:34:34.094Z,98934.91
2023-04-25T18:37:02.560Z,98935.97
2023-04-25T18:39:30.970Z,98939.06
2023-04-25T18:42:04.672Z,98954.34
2023-04-25T18:44:39.648Z,98959.13
2023-04-25T18:47:07.929Z,98953.34
2023-04-25T18:49:35.975Z,98959.75
2023-04-25T18:52:04.527Z,98964.78
2023-04-25T18:54:33.117Z,98969.56
2023-04-25T18:57:05.182Z,98966.81
2023-04-25T18:59:33.534Z,98986.75
2023-04-25T19:02:02.181Z,98992.06
2023-04-25T19:04:30.696Z,98994.19
2023-04-25T19:06:59.018Z,99000.03
2023-04-25T19:09:27.578Z,99000.75
2023-04-25T19:11:55.959Z,98999.88
2023-04-25T19:14:26.167Z,99002.94
2023-04-25T19:16:54.372Z,99000.59
2023-04-25T19:19:22.647Z,99005.91
2023-04-25T19:21:52.612Z,99014.84
2023-04-25T19:24:21.024Z,99007.03
2023-04-25T19:26:49.158Z,99011.88
2023-04-25T19:29:17.676Z,99018.63
2023-04-25T19:31:47.159Z,99019.59
2023-04-25T19:34:15.609Z,99016.63
2023-04-25T19:36:44.394Z,99012.06
2023-04-25T19:39:13.253Z,99021.56
2023-04-25T19:41:41.803Z,99026.00
2023-04-25T19:44:10.872Z,99033.50
2023-04-25T19:46:39.708Z,99039.25
2023-04-25T19:49:09.905Z,99037.72
2023-04-25T19:51:38.128Z,99036.88
2023-04-25T19:54:06.713Z,99037.31
2023-04-25T19:56:35.224Z,99034.41
2023-04-25T19:59:03.338Z,99035.50
2023-04-25T20:01:31.831Z,99043.41
2023-04-25T20:04:00.033Z,99047.41
2023-04-25T20:06:29.863Z,99039.94
2023-04-25T20:08:57.958Z,99040.00
2023-04-25T20:11:28.720Z,99053.63
2023-04-25T20:13:57.554Z,99047.84
2023-04-25T20:16:27.800Z,99054.56
2023-04-25T20:18:56.586Z,99049.19
2023-04-25T20:21:25.365Z,99052.84
2023-04-25T20:23:55.000Z,99053.69
2023-04-25T20:26:23.241Z,99054.22
2023-04-25T20:28:52.300Z,99048.69
2023-04-25T20:31:21.477Z,99055.91
2023-04-25T20:33:49.972Z,99056.31
2023-04-25T20:36:19.696Z,99062.09
2023-04-25T20:38:48.172Z,99052.31
2023-04-25T20:41:18.396Z,99060.75
2023-04-25T20:43:47.338Z,99060.28
2023-04-25T20:46:16.250Z,99065.63
2023-04-25T20:48:44.752Z,99060.88
2023-04-25T20:51:13.041Z,99059.34
2023-04-25T20:53:41.130Z,99060.19
2023-04-25T20:56:11.161Z,99059.16
2023-04-25T20:58:41.480Z,99058.25
2023-04-25T21:01:10.425Z,99055.66
2023-04-25T21:03:39.000Z,99061.56
2023-04-25T21:06:07.707Z,99058.31
2023-04-25T21:08:35.941Z,99054.19
2023-04-25T21:11:05.306Z,99058.25
2023-04-25T21:13:33.824Z,99055.84
2023-04-25T21:16:03.802Z,99059.41
2023-04-25T21:18:32.178Z,99062.91
2023-04-25T21:21:01.346Z,99057.59
2023-04-25T21:23:29.466Z,99057.69
2023-04-25T21:25:57.754Z,99063.41
2023-04-25T21:28:26.289Z,99066.28
2023-04-25T21:30:54.732Z,99067.19
2023-04-25T21:33:24.702Z,99060.09
2023-04-25T21:35:53.182Z,99069.84
2023-04-25T21:38:22.338Z,99069.41
2023-04-25T21:40:51.066Z,99072.94
2023-04-25T21:43:19.310Z,99079.28
2023-04-25T21:46:11.478Z,99073.50
2023-04-25T21:48:37.322Z,99077.94
2023-04-25T21:51:05.912Z,99078.56
2023-04-25T21:53:34.528Z,99069.09
2023-04-25T21:56:02.990Z,99078.50
2023-04-25T21:58:31.182Z,99081.91
2023-04-25T22:01:00.204Z,99072.00
2023-04-25T22:03:28.643Z,99087.75
2023-04-25T22:05:59.102Z,99080.16
2023-04-25T22:08:27.478Z,99087.06
2023-04-25T22:10:56.537Z,99084.25
2023-04-25T22:13:27.038Z,99088.00
2023-04-25T22:15:55.222Z,99091.09
2023-04-25T22:18:23.900Z,99093.19
2023-04-25T22:20:52.197Z,99099.38
2023-04-25T22:23:22.894Z,99095.03
2023-04-25T22:25:51.090Z,99091.72
2023-04-25T22:28:19.319Z,99098.69
2023-04-25T22:30:47.494Z,99099.97
2023-04-25T22:33:15.630Z,99102.69
2023-04-25T22:35:44.000Z,99110.88
2023-04-25T22:38:12.268Z,99116.38
2023-04-25T22:40:41.946Z,99114.78
2023-04-25T22:43:10.747Z,99122.16
2023-04-25T22:45:38.932Z,99130.03
2023-04-25T22:48:08.066Z,99120.31
2023-04-25T22:50:36.946Z,99129.28
2023-04-25T22:53:05.339Z,99126.50
2023-04-25T22:55:33.392Z,99135.03
2023-04-25T22:58:02.849Z,99129.34
2023-04-25T23:00:31.315Z,99137.38
2023-04-25T23:02:59.664Z,99135.69
2023-04-25T23:05:28.344Z,99152.22
2023-04-25T23:07:56.381Z,99152.97
2023-04-25T23:10:27.158Z,99151.81
2023-04-25T23:12:58.319Z,99149.53
2023-04-25T23:15:31.108Z,99163.97
2023-04-25T23:17:59.735Z,99160.47
2023-04-25T23:20:27.956Z,99155.03
2023-04-25T23:22:56.251Z,99155.03
2023-04-25T23:25:24.598Z,99161.72
2023-04-25T23:27:52.781Z,99157.28
2023-04-25T23:30:21.414Z,99152.94
2023-04-25T23:32:51.688Z,99156.88
2023-04-25T23:35:20.246Z,99165.88
2023-04-25T23:37:49.554Z,99166.78
2023-04-25T23:40:17.588Z,99167.91
2023-04-25T23:42:45.726Z,99169.28
2023-04-25T23:45:15.971Z,99167.75
2023-04-25T23:47:44.599Z,99158.94
2023-04-25T23:50:15.011Z,99155.31
2023-04-25T23:52:43.001Z,99155.56
2023-04-25T23:55:11.300Z,99154.13
2023-04-25T23:57:39.315Z,99159.97
